sensor_id;sensor_type;location;lat;lon;timestamp;temperature;humidity
6824;DHT22;58633;49.470;11.004;2022-11-12T00:00:29;7.90;98.90
6824;DHT22;58633;49.470;11.004;2022-11-12T00:02:55;7.90;99.00
6824;DHT22;58633;49.470;11.004;2022-11-12T00:05:21;8.40;98.50
6824;DHT22;58633;49.470;11.004;2022-11-12T00:12:39;7.70;99.50
6824;DHT22;58633;49.470;11.004;2022-11-12T00:15:05;7.70;99.20
6824;DHT22;58633;49.470;11.004;2022-11-12T00:19:58;7.50;99.90
6824;DHT22;58633;49.470;11.004;2022-11-12T00:22:23;7.90;99.90
6824;DHT22;58633;49.470;11.004;2022-11-12T00:32:08;7.70;99.90
6824;DHT22;58633;49.470;11.004;2022-11-12T00:34:35;7.50;99.90
6824;DHT22;58633;49.470;11.004;2022-11-12T00:37:01;7.30;99.90
6824;DHT22;58633;49.470;11.004;2022-11-12T00:39:27;7.30;99.90
6824;DHT22;58633;49.470;11.004;2022-11-12T00:41:53;7.40;99.90
6824;DHT22;58633;49.470;11.004;2022-11-12T00:46:45;6.80;99.90
6824;DHT22;58633;49.470;11.004;2022-11-12T00:49:12;7.30;99.90
6824;DHT22;58633;49.470;11.004;2022-11-12T00:51:38;7.30;99.90
6824;DHT22;58633;49.470;11.004;2022-11-12T00:54:04;7.20;99.90
6824;DHT22;58633;49.470;11.004;2022-11-12T00:56:30;7.30;99.90
6824;DHT22;58633;49.470;11.004;2022-11-12T00:58:57;7.60;99.90
6824;DHT22;58633;49.470;11.004;2022-11-12T01:01:23;6.80;99.90
6824;DHT22;58633;49.470;11.004;2022-11-12T01:06:19;7.40;99.90
6824;DHT22;58633;49.470;11.004;2022-11-12T01:08:45;7.70;99.90
6824;DHT22;58633;49.470;11.004;2022-11-12T01:11:13;7.30;99.90
6824;DHT22;58633;49.470;11.004;2022-11-12T01:13:41;7.30;99.30
6824;DHT22;58633;49.470;11.004;2022-11-12T01:16:10;7.20;99.60
6824;DHT22;58633;49.470;11.004;2022-11-12T01:18:36;7.50;99.90
6824;DHT22;58633;49.470;11.004;2022-11-12T01:21:03;7.10;99.90
6824;DHT22;58633;49.470;11.004;2022-11-12T01:23:34;7.10;99.90
6824;DHT22;58633;49.470;11.004;2022-11-12T01:26:07;7.20;99.60
6824;DHT22;58633;49.470;11.004;2022-11-12T01:28:33;7.00;99.50
6824;DHT22;58633;49.470;11.004;2022-11-12T01:33:48;7.10;99.80
6824;DHT22;58633;49.470;11.004;2022-11-12T01:36:16;7.20;99.90
6824;DHT22;58633;49.470;11.004;2022-11-12T01:38:43;6.80;99.40
6824;DHT22;58633;49.470;11.004;2022-11-12T01:41:12;7.10;99.80
6824;DHT22;58633;49.470;11.004;2022-11-12T01:43:38;7.20;99.90
6824;DHT22;58633;49.470;11.004;2022-11-12T01:46:11;7.10;99.90
6824;DHT22;58633;49.470;11.004;2022-11-12T01:48:42;7.20;99.40
6824;DHT22;58633;49.470;11.004;2022-11-12T01:51:11;7.20;98.70
6824;DHT22;58633;49.470;11.004;2022-11-12T01:53:46;7.10;99.80
6824;DHT22;58633;49.470;11.004;2022-11-12T01:56:15;7.10;99.90
6824;DHT22;58633;49.470;11.004;2022-11-12T01:58:42;7.70;99.90
6824;DHT22;58633;49.470;11.004;2022-11-12T02:01:09;7.50;99.30
6824;DHT22;58633;49.470;11.004;2022-11-12T02:03:34;6.50;98.70
6824;DHT22;58633;49.470;11.004;2022-11-12T02:06:07;8.70;98.90
6824;DHT22;58633;49.470;11.004;2022-11-12T02:08:34;7.20;98.40
6824;DHT22;58633;49.470;11.004;2022-11-12T02:11:20;7.00;98.20
6824;DHT22;58633;49.470;11.004;2022-11-12T02:13:47;7.30;99.00
6824;DHT22;58633;49.470;11.004;2022-11-12T02:16:42;7.00;98.60
6824;DHT22;58633;49.470;11.004;2022-11-12T02:19:11;7.00;98.40
6824;DHT22;58633;49.470;11.004;2022-11-12T02:21:37;6.60;98.20
6824;DHT22;58633;49.470;11.004;2022-11-12T02:24:05;7.10;98.10
6824;DHT22;58633;49.470;11.004;2022-11-12T02:26:37;7.10;97.90
6824;DHT22;58633;49.470;11.004;2022-11-12T02:29:04;7.00;97.70
6824;DHT22;58633;49.470;11.004;2022-11-12T02:31:30;7.10;97.90
6824;DHT22;58633;49.470;11.004;2022-11-12T02:33:56;7.00;98.00
6824;DHT22;58633;49.470;11.004;2022-11-12T02:36:22;6.60;97.50
6824;DHT22;58633;49.470;11.004;2022-11-12T02:41:14;7.10;98.10
6824;DHT22;58633;49.470;11.004;2022-11-12T02:43:40;7.00;98.10
6824;DHT22;58633;49.470;11.004;2022-11-12T02:46:06;7.10;98.50
6824;DHT22;58633;49.470;11.004;2022-11-12T02:48:32;7.10;98.70
6824;DHT22;58633;49.470;11.004;2022-11-12T02:50:57;6.80;98.70
6824;DHT22;58633;49.470;11.004;2022-11-12T02:53:23;7.20;97.70
6824;DHT22;58633;49.470;11.004;2022-11-12T02:55:49;7.50;96.90
6824;DHT22;58633;49.470;11.004;2022-11-12T02:58:15;7.00;97.40
6824;DHT22;58633;49.470;11.004;2022-11-12T03:00:40;7.00;98.60
6824;DHT22;58633;49.470;11.004;2022-11-12T03:03:06;6.90;97.90
6824;DHT22;58633;49.470;11.004;2022-11-12T03:05:33;7.00;97.70
6824;DHT22;58633;49.470;11.004;2022-11-12T03:08:01;7.10;97.20
6824;DHT22;58633;49.470;11.004;2022-11-12T03:10:28;7.00;97.90
6824;DHT22;58633;49.470;11.004;2022-11-12T03:12:56;6.90;98.60
6824;DHT22;58633;49.470;11.004;2022-11-12T03:15:22;6.40;98.40
6824;DHT22;58633;49.470;11.004;2022-11-12T03:17:47;6.30;97.60
6824;DHT22;58633;49.470;11.004;2022-11-12T03:20:13;7.30;97.80
6824;DHT22;58633;49.470;11.004;2022-11-12T03:22:39;6.60;98.30
6824;DHT22;58633;49.470;11.004;2022-11-12T03:25:06;7.00;98.30
6824;DHT22;58633;49.470;11.004;2022-11-12T03:27:32;7.30;98.40
6824;DHT22;58633;49.470;11.004;2022-11-12T03:29:58;6.40;98.10
6824;DHT22;58633;49.470;11.004;2022-11-12T03:32:24;7.10;98.40
6824;DHT22;58633;49.470;11.004;2022-11-12T03:34:49;7.00;98.80
6824;DHT22;58633;49.470;11.004;2022-11-12T03:37:15;6.50;99.50
6824;DHT22;58633;49.470;11.004;2022-11-12T03:39:41;6.90;99.90
6824;DHT22;58633;49.470;11.004;2022-11-12T03:42:06;7.00;99.10
6824;DHT22;58633;49.470;11.004;2022-11-12T03:44:32;6.90;97.90
6824;DHT22;58633;49.470;11.004;2022-11-12T03:46:58;6.50;98.40
6824;DHT22;58633;49.470;11.004;2022-11-12T03:49:24;7.20;98.80
6824;DHT22;58633;49.470;11.004;2022-11-12T03:51:49;6.80;98.60
6824;DHT22;58633;49.470;11.004;2022-11-12T03:54:15;6.70;98.60
6824;DHT22;58633;49.470;11.004;2022-11-12T03:56:40;7.00;98.50
6824;DHT22;58633;49.470;11.004;2022-11-12T03:59:06;6.70;98.90
6824;DHT22;58633;49.470;11.004;2022-11-12T04:01:31;6.70;98.10
6824;DHT22;58633;49.470;11.004;2022-11-12T04:03:57;6.70;98.70
6824;DHT22;58633;49.470;11.004;2022-11-12T04:06:22;6.70;99.30
6824;DHT22;58633;49.470;11.004;2022-11-12T04:09:06;6.50;99.40
6824;DHT22;58633;49.470;11.004;2022-11-12T04:11:32;6.90;99.90
6824;DHT22;58633;49.470;11.004;2022-11-12T04:13:58;6.60;99.90
6824;DHT22;58633;49.470;11.004;2022-11-12T04:16:24;6.50;99.90
6824;DHT22;58633;49.470;11.004;2022-11-12T04:19:10;6.40;99.90
6824;DHT22;58633;49.470;11.004;2022-11-12T04:22:00;6.60;99.90
6824;DHT22;58633;49.470;11.004;2022-11-12T04:24:30;6.50;99.90
6824;DHT22;58633;49.470;11.004;2022-11-12T04:29:43;6.50;99.90
6824;DHT22;58633;49.470;11.004;2022-11-12T04:32:28;6.70;99.90
6824;DHT22;58633;49.470;11.004;2022-11-12T04:34:54;6.50;99.90
6824;DHT22;58633;49.470;11.004;2022-11-12T04:37:22;6.10;99.90
6824;DHT22;58633;49.470;11.004;2022-11-12T04:39:49;6.30;99.90
6824;DHT22;58633;49.470;11.004;2022-11-12T04:42:14;6.30;99.90
6824;DHT22;58633;49.470;11.004;2022-11-12T04:44:59;6.50;99.90
6824;DHT22;58633;49.470;11.004;2022-11-12T04:47:31;6.40;99.90
6824;DHT22;58633;49.470;11.004;2022-11-12T04:49:57;5.40;99.90
6824;DHT22;58633;49.470;11.004;2022-11-12T04:52:23;6.50;99.90
6824;DHT22;58633;49.470;11.004;2022-11-12T04:54:50;6.30;99.90
6824;DHT22;58633;49.470;11.004;2022-11-12T04:57:16;6.30;99.90
6824;DHT22;58633;49.470;11.004;2022-11-12T04:59:42;6.30;99.90
6824;DHT22;58633;49.470;11.004;2022-11-12T05:02:07;6.40;99.90
6824;DHT22;58633;49.470;11.004;2022-11-12T05:04:33;6.30;99.90
6824;DHT22;58633;49.470;11.004;2022-11-12T05:06:59;6.30;99.90
6824;DHT22;58633;49.470;11.004;2022-11-12T05:09:26;6.10;99.90
6824;DHT22;58633;49.470;11.004;2022-11-12T05:11:52;6.30;99.90
6824;DHT22;58633;49.470;11.004;2022-11-12T05:14:20;6.70;99.90
6824;DHT22;58633;49.470;11.004;2022-11-12T05:16:46;6.80;99.90
6824;DHT22;58633;49.470;11.004;2022-11-12T05:19:11;6.00;99.90
6824;DHT22;58633;49.470;11.004;2022-11-12T05:21:37;6.00;99.90
6824;DHT22;58633;49.470;11.004;2022-11-12T05:24:21;5.60;99.90
6824;DHT22;58633;49.470;11.004;2022-11-12T05:26:47;6.00;99.90
6824;DHT22;58633;49.470;11.004;2022-11-12T05:29:12;6.00;99.90
6824;DHT22;58633;49.470;11.004;2022-11-12T05:31:38;5.80;99.90
6824;DHT22;58633;49.470;11.004;2022-11-12T05:34:03;5.90;99.90
6824;DHT22;58633;49.470;11.004;2022-11-12T05:36:29;6.20;99.90
6824;DHT22;58633;49.470;11.004;2022-11-12T05:41:22;6.00;99.90
6824;DHT22;58633;49.470;11.004;2022-11-12T05:43:47;5.70;99.90
6824;DHT22;58633;49.470;11.004;2022-11-12T05:46:13;5.90;99.90
6824;DHT22;58633;49.470;11.004;2022-11-12T05:48:38;6.30;99.90
6824;DHT22;58633;49.470;11.004;2022-11-12T05:51:04;6.10;99.90
6824;DHT22;58633;49.470;11.004;2022-11-12T05:53:29;6.10;99.90
6824;DHT22;58633;49.470;11.004;2022-11-12T05:56:03;6.10;99.90
6824;DHT22;58633;49.470;11.004;2022-11-12T05:58:29;6.00;99.90
6824;DHT22;58633;49.470;11.004;2022-11-12T06:03:21;6.00;99.90
6824;DHT22;58633;49.470;11.004;2022-11-12T06:05:47;6.80;99.90
6824;DHT22;58633;49.470;11.004;2022-11-12T06:08:12;6.70;99.90
6824;DHT22;58633;49.470;11.004;2022-11-12T06:10:38;6.40;99.90
6824;DHT22;58633;49.470;11.004;2022-11-12T06:13:05;5.90;99.90
6824;DHT22;58633;49.470;11.004;2022-11-12T06:15:31;5.60;99.90
6824;DHT22;58633;49.470;11.004;2022-11-12T06:17:56;6.60;99.90
6824;DHT22;58633;49.470;11.004;2022-11-12T06:20:22;5.80;99.90
6824;DHT22;58633;49.470;11.004;2022-11-12T06:22:49;5.70;99.90
6824;DHT22;58633;49.470;11.004;2022-11-12T06:25:15;5.90;99.90
6824;DHT22;58633;49.470;11.004;2022-11-12T06:27:41;6.20;99.90
6824;DHT22;58633;49.470;11.004;2022-11-12T06:30:08;6.40;99.90
6824;DHT22;58633;49.470;11.004;2022-11-12T06:32:34;6.00;99.90
6824;DHT22;58633;49.470;11.004;2022-11-12T06:34:59;6.30;99.90
6824;DHT22;58633;49.470;11.004;2022-11-12T06:37:25;6.00;99.90
6824;DHT22;58633;49.470;11.004;2022-11-12T06:39:50;6.20;99.90
6824;DHT22;58633;49.470;11.004;2022-11-12T06:44:42;6.20;99.90
6824;DHT22;58633;49.470;11.004;2022-11-12T06:47:09;6.10;99.90
6824;DHT22;58633;49.470;11.004;2022-11-12T06:49:36;5.90;99.90
6824;DHT22;58633;49.470;11.004;2022-11-12T06:54:27;5.80;99.90
6824;DHT22;58633;49.470;11.004;2022-11-12T07:01:45;5.80;99.90
6824;DHT22;58633;49.470;11.004;2022-11-12T07:04:10;5.20;99.90
6824;DHT22;58633;49.470;11.004;2022-11-12T07:06:36;5.70;99.90
6824;DHT22;58633;49.470;11.004;2022-11-12T07:09:02;5.80;99.90
6824;DHT22;58633;49.470;11.004;2022-11-12T07:11:28;5.90;99.90
6824;DHT22;58633;49.470;11.004;2022-11-12T07:13:54;5.80;99.90
6824;DHT22;58633;49.470;11.004;2022-11-12T07:16:19;5.70;99.90
6824;DHT22;58633;49.470;11.004;2022-11-12T07:18:47;6.20;99.90
6824;DHT22;58633;49.470;11.004;2022-11-12T07:21:16;5.50;99.90
6824;DHT22;58633;49.470;11.004;2022-11-12T07:23:41;5.90;99.90
6824;DHT22;58633;49.470;11.004;2022-11-12T07:26:18;5.90;99.90
6824;DHT22;58633;49.470;11.004;2022-11-12T07:28:45;6.30;99.90
6824;DHT22;58633;49.470;11.004;2022-11-12T07:31:13;5.90;99.90
6824;DHT22;58633;49.470;11.004;2022-11-12T07:33:39;5.40;99.90
6824;DHT22;58633;49.470;11.004;2022-11-12T07:36:10;6.10;99.90
6824;DHT22;58633;49.470;11.004;2022-11-12T07:38:37;6.40;99.90
6824;DHT22;58633;49.470;11.004;2022-11-12T07:41:07;6.40;99.90
6824;DHT22;58633;49.470;11.004;2022-11-12T07:43:34;6.40;99.90
6824;DHT22;58633;49.470;11.004;2022-11-12T07:46:02;6.70;99.90
6824;DHT22;58633;49.470;11.004;2022-11-12T07:48:29;6.30;99.90
6824;DHT22;58633;49.470;11.004;2022-11-12T07:51:27;6.60;99.90
6824;DHT22;58633;49.470;11.004;2022-11-12T07:53:55;6.70;99.90
6824;DHT22;58633;49.470;11.004;2022-11-12T07:56:23;6.70;99.90
6824;DHT22;58633;49.470;11.004;2022-11-12T07:58:49;6.90;99.50
6824;DHT22;58633;49.470;11.004;2022-11-12T08:01:35;7.00;99.60
6824;DHT22;58633;49.470;11.004;2022-11-12T08:04:02;7.10;98.80
6824;DHT22;58633;49.470;11.004;2022-11-12T08:06:29;7.70;98.50
6824;DHT22;58633;49.470;11.004;2022-11-12T08:08:56;7.10;97.60
6824;DHT22;58633;49.470;11.004;2022-11-12T08:11:22;7.60;97.90
6824;DHT22;58633;49.470;11.004;2022-11-12T08:13:48;7.70;97.10
6824;DHT22;58633;49.470;11.004;2022-11-12T08:16:15;7.20;96.40
6824;DHT22;58633;49.470;11.004;2022-11-12T08:18:42;7.30;95.80
6824;DHT22;58633;49.470;11.004;2022-11-12T08:21:10;7.80;95.40
6824;DHT22;58633;49.470;11.004;2022-11-12T08:23:37;7.50;94.50
6824;DHT22;58633;49.470;11.004;2022-11-12T08:26:05;7.60;93.80
6824;DHT22;58633;49.470;11.004;2022-11-12T08:28:32;7.60;93.50
6824;DHT22;58633;49.470;11.004;2022-11-12T08:31:03;8.30;93.50
6824;DHT22;58633;49.470;11.004;2022-11-12T08:33:31;8.80;93.20
6824;DHT22;58633;49.470;11.004;2022-11-12T08:35:57;8.50;92.20
6824;DHT22;58633;49.470;11.004;2022-11-12T08:38:22;8.00;90.30
6824;DHT22;58633;49.470;11.004;2022-11-12T08:40:48;8.30;90.50
6824;DHT22;58633;49.470;11.004;2022-11-12T08:43:14;7.70;90.00
6824;DHT22;58633;49.470;11.004;2022-11-12T08:45:40;8.20;89.50
6824;DHT22;58633;49.470;11.004;2022-11-12T08:48:09;8.30;90.00
6824;DHT22;58633;49.470;11.004;2022-11-12T08:50:36;8.40;89.60
6824;DHT22;58633;49.470;11.004;2022-11-12T08:53:03;8.50;87.80
6824;DHT22;58633;49.470;11.004;2022-11-12T08:55:30;8.70;87.10
6824;DHT22;58633;49.470;11.004;2022-11-12T08:57:56;8.90;86.10
6824;DHT22;58633;49.470;11.004;2022-11-12T09:00:27;9.00;83.70
6824;DHT22;58633;49.470;11.004;2022-11-12T09:02:52;9.10;83.70
6824;DHT22;58633;49.470;11.004;2022-11-12T09:05:18;9.40;83.10
6824;DHT22;58633;49.470;11.004;2022-11-12T09:07:44;9.60;81.50
6824;DHT22;58633;49.470;11.004;2022-11-12T09:10:11;9.70;80.80
6824;DHT22;58633;49.470;11.004;2022-11-12T09:12:36;9.80;79.90
6824;DHT22;58633;49.470;11.004;2022-11-12T09:15:03;9.90;78.50
6824;DHT22;58633;49.470;11.004;2022-11-12T09:17:29;10.00;76.70
6824;DHT22;58633;49.470;11.004;2022-11-12T09:19:56;10.10;77.00
6824;DHT22;58633;49.470;11.004;2022-11-12T09:22:21;10.30;77.10
6824;DHT22;58633;49.470;11.004;2022-11-12T09:24:47;10.50;76.70
6824;DHT22;58633;49.470;11.004;2022-11-12T09:27:12;10.60;75.70
6824;DHT22;58633;49.470;11.004;2022-11-12T09:29:38;10.60;74.90
6824;DHT22;58633;49.470;11.004;2022-11-12T09:32:04;10.70;74.60
6824;DHT22;58633;49.470;11.004;2022-11-12T09:34:30;10.70;74.10
6824;DHT22;58633;49.470;11.004;2022-11-12T09:36:56;10.80;73.90
6824;DHT22;58633;49.470;11.004;2022-11-12T09:39:21;10.80;74.20
6824;DHT22;58633;49.470;11.004;2022-11-12T09:41:47;11.10;72.90
6824;DHT22;58633;49.470;11.004;2022-11-12T09:44:18;11.20;72.50
6824;DHT22;58633;49.470;11.004;2022-11-12T09:46:58;11.40;72.10
6824;DHT22;58633;49.470;11.004;2022-11-12T09:49:33;11.50;71.70
6824;DHT22;58633;49.470;11.004;2022-11-12T09:52:09;11.70;72.00
6824;DHT22;58633;49.470;11.004;2022-11-12T09:54:36;11.40;71.30
6824;DHT22;58633;49.470;11.004;2022-11-12T09:59:40;11.60;70.80
6824;DHT22;58633;49.470;11.004;2022-11-12T10:02:17;11.60;70.70
6824;DHT22;58633;49.470;11.004;2022-11-12T10:07:28;11.70;70.70
6824;DHT22;58633;49.470;11.004;2022-11-12T10:10:34;11.90;70.70
6824;DHT22;58633;49.470;11.004;2022-11-12T10:13:24;12.10;70.00
6824;DHT22;58633;49.470;11.004;2022-11-12T10:21:57;12.40;69.50
6824;DHT22;58633;49.470;11.004;2022-11-12T10:24:32;12.20;68.70
6824;DHT22;58633;49.470;11.004;2022-11-12T10:26:58;12.50;68.80
6824;DHT22;58633;49.470;11.004;2022-11-12T10:29:45;12.40;68.70
6824;DHT22;58633;49.470;11.004;2022-11-12T10:32:14;12.40;68.10
6824;DHT22;58633;49.470;11.004;2022-11-12T10:34:40;12.20;68.00
6824;DHT22;58633;49.470;11.004;2022-11-12T10:37:10;12.40;68.60
6824;DHT22;58633;49.470;11.004;2022-11-12T10:39:42;12.20;68.10
6824;DHT22;58633;49.470;11.004;2022-11-12T10:42:10;12.20;68.20
6824;DHT22;58633;49.470;11.004;2022-11-12T10:44:39;12.20;68.00
6824;DHT22;58633;49.470;11.004;2022-11-12T10:47:25;12.20;68.10
6824;DHT22;58633;49.470;11.004;2022-11-12T10:52:25;12.50;67.90
6824;DHT22;58633;49.470;11.004;2022-11-12T10:55:22;12.50;68.20
6824;DHT22;58633;49.470;11.004;2022-11-12T10:58:05;12.30;67.60
6824;DHT22;58633;49.470;11.004;2022-11-12T11:00:31;12.40;67.70
6824;DHT22;58633;49.470;11.004;2022-11-12T11:02:58;12.40;67.50
6824;DHT22;58633;49.470;11.004;2022-11-12T11:08:02;12.30;67.40
6824;DHT22;58633;49.470;11.004;2022-11-12T11:10:30;12.50;68.00
6824;DHT22;58633;49.470;11.004;2022-11-12T11:13:18;12.50;67.60
6824;DHT22;58633;49.470;11.004;2022-11-12T11:16:00;12.00;67.00
6824;DHT22;58633;49.470;11.004;2022-11-12T11:18:32;12.60;67.50
6824;DHT22;58633;49.470;11.004;2022-11-12T11:21:21;12.70;67.80
6824;DHT22;58633;49.470;11.004;2022-11-12T11:24:13;12.90;66.80
6824;DHT22;58633;49.470;11.004;2022-11-12T11:30:07;13.30;67.30
6824;DHT22;58633;49.470;11.004;2022-11-12T11:41:17;13.40;66.70
6824;DHT22;58633;49.470;11.004;2022-11-12T11:43:53;14.00;66.40
6824;DHT22;58633;49.470;11.004;2022-11-12T11:46:44;13.60;65.70
6824;DHT22;58633;49.470;11.004;2022-11-12T11:49:26;13.40;65.60
6824;DHT22;58633;49.470;11.004;2022-11-12T11:58:03;14.00;65.30
6824;DHT22;58633;49.470;11.004;2022-11-12T12:00:50;13.30;64.60
6824;DHT22;58633;49.470;11.004;2022-11-12T12:03:23;14.10;65.10
6824;DHT22;58633;49.470;11.004;2022-11-12T12:14:17;14.30;64.70
6824;DHT22;58633;49.470;11.004;2022-11-12T12:19:53;14.50;63.90
6824;DHT22;58633;49.470;11.004;2022-11-12T12:25:28;14.50;63.80
6824;DHT22;58633;49.470;11.004;2022-11-12T12:27:58;14.70;64.00
6824;DHT22;58633;49.470;11.004;2022-11-12T12:30:28;14.80;63.30
6824;DHT22;58633;49.470;11.004;2022-11-12T12:32:58;14.90;63.30
6824;DHT22;58633;49.470;11.004;2022-11-12T12:35:39;15.10;63.40
6824;DHT22;58633;49.470;11.004;2022-11-12T12:38:23;15.00;63.10
6824;DHT22;58633;49.470;11.004;2022-11-12T12:41:01;15.10;63.10
6824;DHT22;58633;49.470;11.004;2022-11-12T12:43:34;15.10;62.90
6824;DHT22;58633;49.470;11.004;2022-11-12T12:46:02;15.00;62.70
6824;DHT22;58633;49.470;11.004;2022-11-12T12:48:34;15.00;62.70
6824;DHT22;58633;49.470;11.004;2022-11-12T12:51:01;15.10;63.10
6824;DHT22;58633;49.470;11.004;2022-11-12T12:55:54;15.10;63.30
6824;DHT22;58633;49.470;11.004;2022-11-12T12:58:40;15.10;62.70
6824;DHT22;58633;49.470;11.004;2022-11-12T13:01:26;15.30;63.20
6824;DHT22;58633;49.470;11.004;2022-11-12T13:04:03;15.50;63.00
6824;DHT22;58633;49.470;11.004;2022-11-12T13:32:52;15.30;61.80
6824;DHT22;58633;49.470;11.004;2022-11-12T13:45:32;15.20;61.40
6824;DHT22;58633;49.470;11.004;2022-11-12T13:48:00;15.40;61.80
6824;DHT22;58633;49.470;11.004;2022-11-12T13:50:30;15.50;61.90
6824;DHT22;58633;49.470;11.004;2022-11-12T13:52:56;15.30;61.70
6824;DHT22;58633;49.470;11.004;2022-11-12T13:55:23;15.20;61.90
6824;DHT22;58633;49.470;11.004;2022-11-12T13:57:54;15.10;61.80
6824;DHT22;58633;49.470;11.004;2022-11-12T14:00:23;15.30;62.30
6824;DHT22;58633;49.470;11.004;2022-11-12T14:03:04;13.00;60.00
6824;DHT22;58633;49.470;11.004;2022-11-12T14:05:32;14.80;62.00
6824;DHT22;58633;49.470;11.004;2022-11-12T14:08:18;14.80;62.50
6824;DHT22;58633;49.470;11.004;2022-11-12T14:10:56;15.00;62.70
6824;DHT22;58633;49.470;11.004;2022-11-12T14:22:17;14.90;63.40
6824;DHT22;58633;49.470;11.004;2022-11-12T14:24:44;14.60;63.40
6824;DHT22;58633;49.470;11.004;2022-11-12T14:27:44;14.70;63.60
6824;DHT22;58633;49.470;11.004;2022-11-12T14:32:47;14.60;64.10
6824;DHT22;58633;49.470;11.004;2022-11-12T14:35:20;14.40;64.20
6824;DHT22;58633;49.470;11.004;2022-11-12T14:40:28;14.50;64.70
6824;DHT22;58633;49.470;11.004;2022-11-12T14:45:21;13.90;64.50
6824;DHT22;58633;49.470;11.004;2022-11-12T14:47:48;13.90;64.60
6824;DHT22;58633;49.470;11.004;2022-11-12T14:50:24;14.00;65.10
6824;DHT22;58633;49.470;11.004;2022-11-12T14:52:56;13.70;65.00
6824;DHT22;58633;49.470;11.004;2022-11-12T14:55:27;13.70;65.20
6824;DHT22;58633;49.470;11.004;2022-11-12T14:57:55;13.70;65.40
6824;DHT22;58633;49.470;11.004;2022-11-12T15:02:57;13.40;65.80
6824;DHT22;58633;49.470;11.004;2022-11-12T15:05:23;13.40;66.10
6824;DHT22;58633;49.470;11.004;2022-11-12T15:07:57;13.70;66.70
6824;DHT22;58633;49.470;11.004;2022-11-12T15:10:36;13.10;66.50
6824;DHT22;58633;49.470;11.004;2022-11-12T15:13:27;13.00;66.50
6824;DHT22;58633;49.470;11.004;2022-11-12T15:16:06;12.80;66.80
6824;DHT22;58633;49.470;11.004;2022-11-12T15:23:26;13.20;68.20
6824;DHT22;58633;49.470;11.004;2022-11-12T15:25:59;12.50;67.50
6824;DHT22;58633;49.470;11.004;2022-11-12T15:28:25;12.60;68.20
6824;DHT22;58633;49.470;11.004;2022-11-12T15:31:21;12.40;68.10
6824;DHT22;58633;49.470;11.004;2022-11-12T15:33:46;12.30;68.20
6824;DHT22;58633;49.470;11.004;2022-11-12T15:36:19;12.00;68.20
6824;DHT22;58633;49.470;11.004;2022-11-12T15:38:48;12.20;68.70
6824;DHT22;58633;49.470;11.004;2022-11-12T15:41:27;12.10;68.80
6824;DHT22;58633;49.470;11.004;2022-11-12T15:43:53;11.90;68.80
6824;DHT22;58633;49.470;11.004;2022-11-12T15:46:20;12.00;69.20
6824;DHT22;58633;49.470;11.004;2022-11-12T15:48:46;11.80;69.30
6824;DHT22;58633;49.470;11.004;2022-11-12T15:51:14;12.00;69.60
6824;DHT22;58633;49.470;11.004;2022-11-12T15:53:41;11.50;69.40
6824;DHT22;58633;49.470;11.004;2022-11-12T15:56:16;11.90;69.90
6824;DHT22;58633;49.470;11.004;2022-11-12T15:58:42;11.60;70.00
6824;DHT22;58633;49.470;11.004;2022-11-12T16:01:10;11.40;70.00
6824;DHT22;58633;49.470;11.004;2022-11-12T16:03:36;11.10;69.90
6824;DHT22;58633;49.470;11.004;2022-11-12T16:08:27;11.60;70.70
6824;DHT22;58633;49.470;11.004;2022-11-12T16:10:53;11.50;70.80
6824;DHT22;58633;49.470;11.004;2022-11-12T16:13:28;11.30;70.90
6824;DHT22;58633;49.470;11.004;2022-11-12T16:15:55;11.20;71.00
6824;DHT22;58633;49.470;11.004;2022-11-12T16:20:47;11.00;71.20
6824;DHT22;58633;49.470;11.004;2022-11-12T16:23:15;11.00;71.40
6824;DHT22;58633;49.470;11.004;2022-11-12T16:25:42;11.00;71.70
6824;DHT22;58633;49.470;11.004;2022-11-12T16:28:13;10.90;71.70
6824;DHT22;58633;49.470;11.004;2022-11-12T16:33:09;11.40;72.60
6824;DHT22;58633;49.470;11.004;2022-11-12T16:35:36;10.90;72.10
6824;DHT22;58633;49.470;11.004;2022-11-12T16:38:02;10.80;72.40
6824;DHT22;58633;49.470;11.004;2022-11-12T16:40:29;11.50;73.20
6824;DHT22;58633;49.470;11.004;2022-11-12T16:42:55;10.80;72.80
6824;DHT22;58633;49.470;11.004;2022-11-12T16:45:32;10.70;73.00
6824;DHT22;58633;49.470;11.004;2022-11-12T16:47:58;10.30;72.80
6824;DHT22;58633;49.470;11.004;2022-11-12T16:50:25;10.60;73.20
6824;DHT22;58633;49.470;11.004;2022-11-12T16:52:52;10.50;73.40
6824;DHT22;58633;49.470;11.004;2022-11-12T16:55:18;11.40;74.50
6824;DHT22;58633;49.470;11.004;2022-11-12T16:57:46;10.90;74.20
6824;DHT22;58633;49.470;11.004;2022-11-12T17:00:14;10.80;74.30
6824;DHT22;58633;49.470;11.004;2022-11-12T17:02:40;10.40;74.40
6824;DHT22;58633;49.470;11.004;2022-11-12T17:05:13;10.20;74.00
6824;DHT22;58633;49.470;11.004;2022-11-12T17:10:05;10.60;75.10
6824;DHT22;58633;49.470;11.004;2022-11-12T17:12:30;10.10;74.10
6824;DHT22;58633;49.470;11.004;2022-11-12T17:14:56;10.10;74.40
6824;DHT22;58633;49.470;11.004;2022-11-12T17:17:21;10.40;75.10
6824;DHT22;58633;49.470;11.004;2022-11-12T17:19:47;10.10;75.20
6824;DHT22;58633;49.470;11.004;2022-11-12T17:22:12;10.10;75.50
6824;DHT22;58633;49.470;11.004;2022-11-12T17:24:38;12.30;78.30
6824;DHT22;58633;49.470;11.004;2022-11-12T17:27:03;10.30;76.90
6824;DHT22;58633;49.470;11.004;2022-11-12T17:29:29;9.90;78.00
6824;DHT22;58633;49.470;11.004;2022-11-12T17:31:54;10.00;77.30
6824;DHT22;58633;49.470;11.004;2022-11-12T17:34:20;10.00;77.80
6824;DHT22;58633;49.470;11.004;2022-11-12T17:36:45;10.10;78.50
6824;DHT22;58633;49.470;11.004;2022-11-12T17:39:11;9.80;79.40
6824;DHT22;58633;49.470;11.004;2022-11-12T17:41:37;9.90;80.10
6824;DHT22;58633;49.470;11.004;2022-11-12T17:44:04;10.00;79.30
6824;DHT22;58633;49.470;11.004;2022-11-12T17:46:30;9.60;80.90
6824;DHT22;58633;49.470;11.004;2022-11-12T17:48:57;9.60;82.00
6824;DHT22;58633;49.470;11.004;2022-11-12T17:51:24;9.70;82.30
6824;DHT22;58633;49.470;11.004;2022-11-12T17:53:50;9.60;83.70
6824;DHT22;58633;49.470;11.004;2022-11-12T17:56:18;10.00;83.60
6824;DHT22;58633;49.470;11.004;2022-11-12T17:58:44;9.50;84.80
6824;DHT22;58633;49.470;11.004;2022-11-12T18:01:14;9.60;85.50
6824;DHT22;58633;49.470;11.004;2022-11-12T18:03:44;9.30;86.10
6824;DHT22;58633;49.470;11.004;2022-11-12T18:06:21;9.30;86.70
6824;DHT22;58633;49.470;11.004;2022-11-12T18:08:54;9.00;87.50
6824;DHT22;58633;49.470;11.004;2022-11-12T18:11:21;10.20;87.30
6824;DHT22;58633;49.470;11.004;2022-11-12T18:13:47;9.30;88.10
6824;DHT22;58633;49.470;11.004;2022-11-12T18:18:44;9.30;90.50
6824;DHT22;58633;49.470;11.004;2022-11-12T18:21:10;9.20;90.80
6824;DHT22;58633;49.470;11.004;2022-11-12T18:23:42;9.20;90.40
6824;DHT22;58633;49.470;11.004;2022-11-12T18:26:08;8.70;90.20
6824;DHT22;58633;49.470;11.004;2022-11-12T18:28:34;9.50;90.80
6824;DHT22;58633;49.470;11.004;2022-11-12T18:33:27;9.30;91.50
6824;DHT22;58633;49.470;11.004;2022-11-12T18:36:07;8.90;92.20
6824;DHT22;58633;49.470;11.004;2022-11-12T18:38:34;9.50;91.60
6824;DHT22;58633;49.470;11.004;2022-11-12T18:41:08;9.00;92.70